Monday, January 21, 2019, 6:04 PM EST
Back to Local

KSFZ, Pawtucket, North Central State Airport

Location: Smithfield, RI, United States Lat: 41.917
Local Time: 6:04 PM EST (23:04 GMT) Lon: -71.5
Time Zone: US/Eastern Elev: 439 ft

Show me the last for .
Show Decoded

2019-01-21 16:56 METAR KSFZ 212156Z AUTO 31012G24KT 9SM -SN SCT049 BKN070 OVC080 M18/M22 A2990
                 RMK AO2 SNE01B50 SLP079 P0000 T11781217 FZRANO =
2019-01-21 15:56 METAR KSFZ 212056Z AUTO 31015G22KT 9SM -SN BKN034 OVC046 M17/M22 A2986 RMK AO2
                 SLP066 P0000 60000 T11721217 53024 FZRANO =
2019-01-21 14:56 METAR KSFZ 211956Z AUTO 30018G26KT 280V340 5SM -SN OVC030 M17/M21 A2982 RMK AO2
                 PK WND 30026/1956 SLP052 P0000 T11671211 FZRANO =
2019-01-21 13:56 METAR KSFZ 211856Z AUTO 30009G25KT 5SM -SN BKN026 OVC030 M16/M21 A2979 RMK AO2
                 SNB24 SLP043 P0000 T11611206 FZRANO =
2019-01-21 12:56 METAR KSFZ 211756Z AUTO 30014G25KT 5SM HZ OVC029 M16/M21 A2979 RMK AO2 SLP042
                 T11611206 11156 21194 50000 FZRANO =
2019-01-21 12:38 METAR KSFZ 211738Z AUTO 30014G23KT 8SM BKN029 OVC041 M17/M21 A2979 RMK AO2
                 FZRANO =
2019-01-21 12:29 METAR KSFZ 211729Z AUTO 29017G22KT 260V320 10SM SCT029 OVC045 M16/M20 A2979 RMK
                 AO2 FZRANO =
2019-01-21 11:56 METAR KSFZ 211656Z AUTO 30013G22KT 10SM BKN029 BKN110 M16/M21 A2979 RMK AO2
                 SLP042 T11611206 FZRANO =
2019-01-21 11:33 METAR KSFZ 211633Z AUTO 30018G22KT 10SM BKN027 M17/M22 A2980 RMK AO2 FZRANO =
2019-01-21 11:09 METAR KSFZ 211609Z AUTO 31012G24KT 280V340 10SM SCT029 M17/M22 A2980 RMK AO2
                 FZRANO =
2019-01-21 10:56 METAR KSFZ 211556Z AUTO 30014G25KT 270V330 9SM BKN029 M17/M22 A2980 RMK AO2
                 SLP046 T11721222 FZRANO =
2019-01-21 10:47 METAR KSFZ 211547Z AUTO 30016G22KT 10SM BKN029 M17/M22 A2980 RMK AO2 FZRANO =
2019-01-21 09:56 METAR KSFZ 211456Z AUTO 32015G22KT 10SM CLR M17/M22 A2979 RMK AO2 SLP041
                 T11721217 53032 FZRANO =
2019-01-21 08:56 METAR KSFZ 211356Z AUTO 30011G23KT 10SM CLR M18/M22 A2976 RMK AO2 SLP031
                 T11831222 FZRANO =
2019-01-21 07:56 METAR KSFZ 211256Z AUTO 30013G19KT 10SM CLR M19/M23 A2972 RMK AO2 SLP018
                 T11891228 FZRANO =
2019-01-21 06:56 METAR KSFZ 211156Z AUTO 29013G19KT 10SM CLR M19/M23 A2969 RMK AO2 SLP008 70068
                 T11941228 11161 21194 53025 FZRANO =
2019-01-21 05:56 METAR KSFZ 211056Z AUTO 29011G19KT 10SM CLR M19/M22 A2967 RMK AO2 SLP999
                 T11891222 FZRANO =
2019-01-21 04:56 METAR KSFZ 210956Z AUTO 28011G18KT 10SM CLR M18/M22 A2963 RMK AO2 SLP988
                 T11831217 FZRANO =
2019-01-21 03:56 METAR KSFZ 210856Z AUTO 30013G25KT 10SM CLR M18/M22 A2962 RMK AO2 SLP983
                 T11781217 51017 FZRANO =
2019-01-21 02:56 METAR KSFZ 210756Z AUTO 31012G22KT 10SM CLR M17/M21 A2960 RMK AO2 SLP976
                 T11721206 FZRANO =
2019-01-21 01:56 METAR KSFZ 210656Z AUTO 30013G21KT 10SM CLR M17/M20 A2959 RMK AO2 SLP971
                 T11671200 FZRANO =
2019-01-21 00:56 METAR KSFZ 210556Z AUTO 31013G20KT 10SM CLR M16/M19 A2957 RMK AO2 PK WND
                 32027/0506 SLP964 T11611194 11044 21161 51034 FZRANO =
2019-01-20 23:56 METAR KSFZ 210456Z AUTO 32013G23KT 10SM CLR M15/M18 A2955 RMK AO2 SLP958
                 T11501183 400061150 FZRANO =
2019-01-20 22:56 METAR KSFZ 210356Z AUTO 33013G22KT 10SM CLR M13/M17 A2951 RMK AO2 PK WND
                 34026/0331 SLP945 T11331167 FZRANO =
2019-01-20 21:56 METAR KSFZ 210256Z AUTO 32014G29KT 10SM CLR M11/M14 A2946 RMK AO2 PK WND
                 34029/0254 SLP930 T11111144 53029 FZRANO =
2019-01-20 20:56 METAR KSFZ 210156Z AUTO 32016G23KT 10SM FEW015 M09/M12 A2941 RMK AO2 PK WND
                 33028/0146 SLP910 T10891117 FZRANO =
2019-01-20 20:52 METAR KSFZ 210152Z AUTO 31016G28KT 10SM SCT015 M09/M12 A2941 RMK AO2 PK WND
                 33028/0146 FZRANO =
2019-01-20 20:23 METAR KSFZ 210123Z AUTO 33008G17KT 10SM BKN015 OVC060 M07/M09 A2939 RMK AO2
                 FZRANO =
2019-01-20 19:56 METAR KSFZ 210056Z AUTO 32014G22KT 10SM FEW023 OVC055 M06/M08 A2938 RMK AO2
                 SLP899 T10611083 FZRANO =
2019-01-20 18:56 METAR KSFZ 202356Z AUTO 32012G17KT 10SM FEW019 SCT046 OVC055 M04/M06 A2934 RMK
                 AO2 SLP887 60010 T10441061 11006 21056 53030 FZRANO =

Support USWX by starting your Amazon purchase here.